Terminal Aerodrome Forecast
Issued by NWS Wilmington, OH

Current Version | Previous Version | Text Only | Print | Product List | Glossary Off
Versions: 1 2 3 4 5 6 7 8 9 10 11 12 13 14 15 16 17 18 19 20 21 22 23 24 25

000
FTUS41 KILN 262000 AAA
TAFDAY
TAF AMD
KDAY 262006Z 2620/2718 19016G24KT P6SM VCTS BKN040CB
      TEMPO 2620/2622 17025G40KT 3SM TSRA BKN030CB
     FM270000 20014KT P6SM SCT040 BKN250
     FM270600 21009KT P6SM BKN010
     FM271500 22014G22KT P6SM FEW030=

USA.gov is the U.S. government's official web portal to all federal, state and local government web resources and services.